Time;durP1;ratioP1;P1;durP2;ratioP2;P2;SDS_P1;SDS_P2;PMS_P1;PMS_P2;Temp;Humidity;BMP_temperature;BMP_pressure;BME280_temperature;BME280_humidity;BME280_pressure;Samples;Min_cycle;Max_cycle;Signal;HPM_P1;HPM_P2
2023/11/22 00:00:09;;;;;;;10.77;8.87;;;9.70;99.90;;;;;;5012494;28;20966;-71
2023/11/22 00:02:35;;;;;;;12.73;9.40;;;9.80;99.90;;;;;;5014011;28;20188;-71
2023/11/22 00:05:01;;;;;;;13.60;9.97;;;9.70;99.90;;;;;;5013109;28;20479;-71
2023/11/22 00:07:29;;;;;;;16.00;10.63;;;9.60;99.90;;;;;;5015546;28;20185;-73
2023/11/22 00:09:55;;;;;;;9.40;5.93;;;9.60;99.90;;;;;;5012562;28;20168;-73
2023/11/22 00:12:21;;;;;;;5.43;3.80;;;9.30;99.90;;;;;;5014007;28;20414;-73
2023/11/22 00:14:48;;;;;;;4.53;3.97;;;;;;;;;;5013958;28;20410;-73
2023/11/22 00:17:14;;;;;;;3.93;3.53;;;;;;;;;;5013452;28;20430;-73
2023/11/22 00:19:40;;;;;;;3.70;3.30;;;8.10;99.90;;;;;;5013688;28;20410;-73
2023/11/22 00:22:12;;;;;;;4.10;3.67;;;8.10;99.90;;;;;;5012114;28;20411;-73
2023/11/22 00:24:39;;;;;;;4.50;4.10;;;8.00;99.90;;;;;;5013427;28;20442;-73
2023/11/22 00:27:04;;;;;;;5.33;4.80;;;7.90;99.90;;;;;;5013627;28;20445;-73
2023/11/22 00:29:30;;;;;;;4.40;3.60;;;7.90;99.90;;;;;;5013276;28;20411;-73
2023/11/22 00:31:55;;;;;;;4.17;3.77;;;7.90;99.90;;;;;;5013334;28;20669;-73
2023/11/22 00:34:23;;;;;;;4.10;3.70;;;7.60;99.90;;;;;;5013369;28;20179;-73
2023/11/22 00:36:48;;;;;;;4.60;4.20;;;7.70;99.90;;;;;;5013278;28;20699;-73
2023/11/22 00:39:14;;;;;;;5.90;4.70;;;7.90;99.90;;;;;;5012828;28;20411;-73
2023/11/22 00:41:40;;;;;;;4.97;4.47;;;8.00;99.90;;;;;;5013318;28;20160;-73
2023/11/22 00:44:06;;;;;;;5.17;4.67;;;7.90;99.90;;;;;;5012139;28;20175;-73
2023/11/22 00:46:32;;;;;;;7.03;5.00;;;7.80;99.90;;;;;;5013278;28;20461;-72
2023/11/22 00:48:57;;;;;;;4.90;4.40;;;7.70;99.90;;;;;;5013306;28;20702;-72
2023/11/22 00:51:23;;;;;;;5.00;4.50;;;7.80;99.90;;;;;;5013068;28;20588;-72
2023/11/22 00:53:49;;;;;;;9.23;6.70;;;7.70;99.90;;;;;;5011762;28;20172;-73
2023/11/22 00:56:15;;;;;;;4.90;4.40;;;7.90;99.90;;;;;;5013374;28;20187;-72
2023/11/22 00:58:41;;;;;;;5.73;5.20;;;7.60;99.90;;;;;;5012719;28;20444;-72
2023/11/22 01:01:07;;;;;;;5.70;4.80;;;7.50;99.90;;;;;;5012788;28;20432;-72
2023/11/22 01:03:33;;;;;;;6.10;5.50;;;7.20;99.90;;;;;;5012930;28;20221;-72
2023/11/22 01:05:58;;;;;;;7.23;6.13;;;7.20;99.90;;;;;;5012697;28;20862;-72
2023/11/22 01:08:24;;;;;;;9.07;7.10;;;7.30;99.90;;;;;;5013032;28;20546;-72
2023/11/22 01:10:50;;;;;;;7.03;6.33;;;7.30;99.90;;;;;;5012757;28;20166;-72
2023/11/22 01:13:15;;;;;;;6.63;5.47;;;7.20;99.90;;;;;;5012743;28;20175;-72
2023/11/22 01:15:41;;;;;;;7.23;6.53;;;7.30;99.90;;;;;;5012202;28;20211;-71
2023/11/22 01:18:07;;;;;;;5.97;5.33;;;7.10;99.90;;;;;;5012646;28;20190;-72
2023/11/22 01:20:33;;;;;;;8.13;6.77;;;7.00;99.90;;;;;;5012836;28;20406;-72
2023/11/22 01:22:58;;;;;;;6.10;5.50;;;7.00;99.90;;;;;;5012934;28;20201;-72
2023/11/22 01:25:24;;;;;;;6.87;6.20;;;7.00;99.90;;;;;;5012695;28;20564;-71
2023/11/22 01:27:49;;;;;;;7.40;6.57;;;6.90;99.90;;;;;;5012627;28;20181;-73
2023/11/22 01:30:15;;;;;;;5.73;4.90;;;6.80;99.90;;;;;;5012745;28;20240;-72
2023/11/22 01:32:41;;;;;;;6.40;5.80;;;6.90;99.90;;;;;;5012729;28;20308;-73
2023/11/22 01:35:06;;;;;;;6.17;5.37;;;7.10;99.90;;;;;;5012245;28;20179;-73
2023/11/22 01:37:32;;;;;;;6.57;5.83;;;7.20;99.90;;;;;;5012824;28;20201;-73
2023/11/22 01:39:58;;;;;;;7.30;4.70;;;7.00;99.90;;;;;;5006494;28;20477;-73
2023/11/22 01:42:25;;;;;;;5.80;5.20;;;6.90;99.90;;;;;;4993107;28;20194;-73
2023/11/22 01:44:52;;;;;;;5.63;5.10;;;6.90;99.90;;;;;;5012005;28;20191;-73
2023/11/22 01:47:18;;;;;;;6.57;5.87;;;6.70;99.90;;;;;;5012330;28;20853;-72
2023/11/22 01:49:45;;;;;;;7.13;6.07;;;6.70;99.90;;;;;;5013100;28;20401;-73
2023/11/22 01:52:10;;;;;;;6.40;5.80;;;6.60;99.90;;;;;;5014939;28;20506;-73
2023/11/22 01:54:36;;;;;;;6.30;5.67;;;6.60;99.90;;;;;;5016342;28;20502;-73
2023/11/22 01:57:02;;;;;;;6.17;4.97;;;6.50;99.90;;;;;;5016300;28;20192;-73
2023/11/22 01:59:30;;;;;;;5.27;4.67;;;6.60;99.90;;;;;;5016365;28;20466;-73
2023/11/22 02:01:56;;;;;;;5.10;4.60;;;6.60;99.90;;;;;;5016066;28;20438;-73
2023/11/22 02:04:21;;;;;;;5.37;4.30;;;6.50;99.90;;;;;;5015909;28;20516;-73
2023/11/22 02:06:47;;;;;;;5.20;4.40;;;6.40;99.90;;;;;;5016272;28;20549;-73
2023/11/22 02:09:17;;;;;;;5.23;4.43;;;6.50;99.90;;;;;;5016112;28;20515;-73
2023/11/22 02:11:45;;;;;;;5.70;5.10;;;6.50;99.90;;;;;;4996436;28;20175;-73
2023/11/22 02:14:11;;;;;;;4.87;4.37;;;6.60;99.90;;;;;;4996356;28;20439;-73
2023/11/22 02:16:37;;;;;;;5.40;4.23;;;6.50;99.90;;;;;;4996494;28;20484;-73
2023/11/22 02:19:06;;;;;;;4.93;4.27;;;6.40;99.90;;;;;;4996304;28;20470;-73
2023/11/22 02:21:35;;;;;;;4.70;4.30;;;6.40;99.90;;;;;;5014247;28;20905;-73
2023/11/22 02:24:01;;;;;;;5.77;5.20;;;6.40;99.90;;;;;;5015742;28;20405;-73
2023/11/22 02:26:27;;;;;;;5.80;5.20;;;6.50;99.90;;;;;;5016138;28;20472;-73
2023/11/22 02:28:53;;;;;;;5.87;5.27;;;6.30;99.90;;;;;;5016093;28;20881;-73
2023/11/22 02:31:18;;;;;;;7.73;4.77;;;6.30;99.90;;;;;;5016034;28;20627;-72
2023/11/22 02:33:44;;;;;;;5.20;4.70;;;6.30;99.90;;;;;;5016279;28;20537;-72
2023/11/22 02:36:12;;;;;;;4.67;4.17;;;6.30;99.90;;;;;;5015741;28;20169;-72
2023/11/22 02:38:38;;;;;;;4.80;4.40;;;6.30;99.90;;;;;;5015612;28;20163;-72
2023/11/22 02:41:04;;;;;;;4.60;4.20;;;6.50;99.90;;;;;;5015546;28;20485;-73
2023/11/22 02:43:30;;;;;;;5.33;4.83;;;6.50;99.90;;;;;;5015379;28;20193;-72
2023/11/22 02:45:55;;;;;;;5.33;4.47;;;6.50;99.90;;;;;;5015397;28;20495;-72
2023/11/22 02:48:21;;;;;;;4.90;4.30;;;6.40;99.90;;;;;;5015179;28;20433;-72
2023/11/22 02:50:46;;;;;;;4.93;4.40;;;6.30;99.90;;;;;;5015239;28;20535;-73
2023/11/22 02:53:12;;;;;;;5.23;4.10;;;6.30;99.90;;;;;;5015693;28;20602;-72
2023/11/22 02:55:38;;;;;;;5.23;4.70;;;6.50;99.90;;;;;;5015122;28;20206;-73
2023/11/22 02:58:03;;;;;;;5.43;4.33;;;6.70;99.90;;;;;;5015061;28;20205;-73
2023/11/22 03:00:29;;;;;;;5.50;5.00;;;6.50;99.90;;;;;;5014807;28;20470;-72
2023/11/22 03:02:55;;;;;;;5.37;4.87;;;6.50;99.90;;;;;;5015115;28;20612;-72
2023/11/22 03:05:22;;;;;;;5.77;4.70;;;6.40;99.90;;;;;;5015335;28;20201;-72
2023/11/22 03:07:48;;;;;;;5.40;3.90;;;6.50;99.90;;;;;;5015078;28;20419;-73
2023/11/22 03:10:13;;;;;;;5.40;4.70;;;6.50;99.90;;;;;;5014992;28;20885;-72
2023/11/22 03:12:39;;;;;;;5.30;4.57;;;6.20;99.90;;;;;;5014878;28;20196;-72
2023/11/22 03:15:05;;;;;;;6.30;4.87;;;6.00;99.90;;;;;;5014842;28;20551;-72
2023/11/22 03:17:32;;;;;;;5.40;4.87;;;6.10;99.90;;;;;;5014688;28;20245;-72
2023/11/22 03:19:58;;;;;;;5.53;4.63;;;6.00;99.90;;;;;;5014753;28;20432;-72
2023/11/22 03:22:29;;;;;;;4.90;4.30;;;5.80;99.90;;;;;;5014913;28;20890;-72
2023/11/22 03:24:55;;;;;;;5.53;5.00;;;5.80;99.90;;;;;;5014507;28;20182;-72
2023/11/22 03:27:22;;;;;;;5.63;5.03;;;5.80;99.90;;;;;;5014211;28;20806;-72
2023/11/22 03:29:47;;;;;;;5.10;4.30;;;5.70;99.90;;;;;;5011655;28;20179;-72
2023/11/22 03:32:13;;;;;;;5.43;4.93;;;5.70;99.90;;;;;;4993550;28;20778;-72
2023/11/22 03:34:39;;;;;;;9.27;4.80;;;5.60;99.90;;;;;;4994851;28;20174;-72
2023/11/22 03:37:04;;;;;;;7.43;5.27;;;5.60;99.90;;;;;;4994790;28;20188;-72
2023/11/22 03:39:30;;;;;;;5.07;4.47;;;5.60;99.90;;;;;;4995506;28;20250;-72
2023/11/22 03:41:57;;;;;;;5.60;4.77;;;5.60;99.90;;;;;;5014701;28;20179;-72
2023/11/22 03:44:22;;;;;;;5.07;4.40;;;5.50;99.90;;;;;;5014010;28;20212;-72
2023/11/22 03:46:48;;;;;;;5.53;4.80;;;5.60;99.90;;;;;;5029574;23;20480;-74
2023/11/22 03:49:14;;;;;;;6.37;5.50;;;5.70;99.90;;;;;;5034745;28;20167;-73
2023/11/22 03:51:40;;;;;;;5.07;4.60;;;5.70;99.90;;;;;;5052399;28;20254;-72
2023/11/22 03:54:06;;;;;;;5.93;5.20;;;5.80;99.90;;;;;;5055013;28;20409;-74
2023/11/22 03:56:33;;;;;;;5.17;4.50;;;5.70;99.90;;;;;;5055309;28;21018;-73
2023/11/22 03:58:59;;;;;;;7.30;4.27;;;5.70;99.90;;;;;;5074103;28;20820;-73
2023/11/22 04:01:24;;;;;;;5.13;4.63;;;5.80;99.90;;;;;;5057988;28;20473;-73
2023/11/22 04:03:51;;;;;;;5.10;4.60;;;5.60;99.90;;;;;;5054062;28;20163;-73
2023/11/22 04:06:17;;;;;;;5.77;5.20;;;5.70;99.90;;;;;;5054012;28;20196;-72
2023/11/22 04:08:44;;;;;;;6.03;5.40;;;5.60;99.90;;;;;;5053694;28;20516;-73
2023/11/22 04:11:09;;;;;;;5.87;5.27;;;5.60;99.90;;;;;;5067324;28;20399;-73
2023/11/22 04:13:36;;;;;;;7.20;5.50;;;5.60;99.90;;;;;;5073019;28;20406;-72
2023/11/22 04:16:01;;;;;;;5.60;4.73;;;5.50;99.90;;;;;;5072338;28;20420;-73
2023/11/22 04:18:27;;;;;;;6.07;5.40;;;5.70;99.90;;;;;;5073447;28;20420;-74
2023/11/22 04:20:53;;;;;;;7.13;6.43;;;5.80;99.90;;;;;;5062227;28;20177;-74
2023/11/22 04:23:18;;;;;;;8.10;6.00;;;6.00;99.90;;;;;;5053760;28;20543;-73
2023/11/22 04:25:44;;;;;;;6.83;5.87;;;6.20;99.90;;;;;;5053417;28;20658;-73
2023/11/22 04:28:10;;;;;;;6.47;5.17;;;6.00;99.90;;;;;;5053415;28;20770;-73
2023/11/22 04:30:35;;;;;;;5.83;5.03;;;6.00;99.90;;;;;;5061964;28;20168;-73
2023/11/22 04:33:01;;;;;;;6.60;5.43;;;6.30;99.90;;;;;;5073556;28;20336;-74
2023/11/22 04:35:27;;;;;;;7.20;5.80;;;6.40;99.90;;;;;;5073591;28;20406;-73
2023/11/22 04:37:55;;;;;;;8.40;5.63;;;6.10;99.90;;;;;;5073249;28;20844;-73
2023/11/22 04:40:21;;;;;;;6.60;6.00;;;6.10;99.90;;;;;;5066964;28;20258;-73
2023/11/22 04:42:48;;;;;;;9.37;6.60;;;6.10;99.90;;;;;;5053251;28;20513;-74
2023/11/22 04:45:13;;;;;;;10.63;6.03;;;6.00;99.90;;;;;;5053015;28;20819;-72
2023/11/22 04:47:39;;;;;;;6.30;5.57;;;6.00;99.90;;;;;;5052932;28;20453;-73
2023/11/22 04:50:05;;;;;;;6.00;5.13;;;6.10;99.90;;;;;;5057537;28;20167;-74
2023/11/22 04:52:32;;;;;;;7.20;5.93;;;6.00;99.90;;;;;;5073333;28;20912;-74
2023/11/22 04:54:58;;;;;;;11.67;6.63;;;5.80;99.90;;;;;;5073047;28;20406;-74
2023/11/22 04:57:23;;;;;;;6.60;5.90;;;5.70;99.90;;;;;;5071703;28;20433;-73
2023/11/22 04:59:49;;;;;;;9.77;5.93;;;5.60;99.90;;;;;;5071148;28;20175;-73
2023/11/22 05:02:14;;;;;;;9.77;6.00;;;5.70;99.90;;;;;;5051725;28;20165;-75
2023/11/22 05:04:40;;;;;;;5.70;5.13;;;5.80;99.90;;;;;;5052805;28;20196;-74
2023/11/22 05:07:05;;;;;;;6.40;5.60;;;5.90;99.90;;;;;;5052772;28;20192;-74
2023/11/22 05:09:31;;;;;;;6.53;5.83;;;5.90;99.90;;;;;;5063346;28;20263;-74
2023/11/22 05:11:56;;;;;;;14.07;8.70;;;6.00;99.90;;;;;;5053674;28;20180;-73
2023/11/22 05:14:23;;;;;;;8.40;6.13;;;5.80;99.90;;;;;;5052825;28;20164;-73
2023/11/22 05:16:49;;;;;;;5.70;5.20;;;5.70;99.90;;;;;;5053366;28;20554;-73
2023/11/22 05:19:15;;;;;;;4.70;4.20;;;5.60;99.90;;;;;;5052785;28;20405;-74
2023/11/22 05:21:40;;;;;;;5.33;4.50;;;5.60;99.90;;;;;;5037087;28;20684;-72
2023/11/22 05:24:07;;;;;;;5.00;4.50;;;5.40;99.90;;;;;;5034279;28;20172;-74
2023/11/22 05:26:33;;;;;;;6.40;4.60;;;5.40;99.90;;;;;;5043382;28;20238;-73
2023/11/22 05:28:59;;;;;;;5.93;5.30;;;5.50;99.90;;;;;;5056803;28;20405;-74
2023/11/22 05:31:25;;;;;;;5.53;4.97;;;5.60;99.90;;;;;;5071628;28;20216;-73
2023/11/22 05:33:50;;;;;;;5.80;5.30;;;5.70;99.90;;;;;;5077448;28;20155;-73
2023/11/22 05:36:16;;;;;;;5.87;5.20;;;5.70;99.90;;;;;;5044763;28;20766;-75
2023/11/22 05:38:42;;;;;;;7.70;5.67;;;5.90;99.90;;;;;;5027432;28;20303;-73
2023/11/22 05:41:08;;;;;;;5.50;5.00;;;5.90;99.90;;;;;;5034962;28;20424;-75
2023/11/22 05:43:36;;;;;;;5.90;4.43;;;5.80;99.90;;;;;;5032934;28;20418;-74
2023/11/22 05:46:06;;;;;;;5.57;5.07;;;5.80;99.90;;;;;;5036699;28;20219;-73
2023/11/22 05:48:33;;;;;;;5.67;4.80;;;5.80;99.90;;;;;;5036381;28;20446;-73
2023/11/22 05:50:59;;;;;;;5.17;4.70;;;5.80;99.90;;;;;;5058087;28;20464;-74
2023/11/22 05:53:25;;;;;;;5.93;4.30;;;5.70;99.90;;;;;;5076413;28;20409;-73
2023/11/22 05:55:52;;;;;;;6.10;4.93;;;5.60;99.90;;;;;;5076486;28;20491;-73
2023/11/22 05:58:18;;;;;;;7.13;4.97;;;5.50;99.90;;;;;;5076029;28;20186;-74
2023/11/22 06:00:44;;;;;;;5.40;4.90;;;5.30;99.90;;;;;;5067597;28;20497;-71
2023/11/22 06:03:11;;;;;;;5.13;4.63;;;5.40;99.90;;;;;;5056103;28;20171;-73
2023/11/22 06:05:37;;;;;;;9.77;5.47;;;5.50;99.90;;;;;;5055896;28;20453;-72
2023/11/22 06:08:02;;;;;;;5.47;4.97;;;5.50;99.90;;;;;;5055632;28;20981;-72
2023/11/22 06:10:28;;;;;;;5.30;4.47;;;5.40;99.90;;;;;;5061933;28;20163;-73
2023/11/22 06:12:54;;;;;;;5.50;4.63;;;5.50;99.90;;;;;;5075881;28;20175;-73
2023/11/22 06:15:21;;;;;;;5.20;4.70;;;5.40;99.90;;;;;;5075648;28;20658;-73
2023/11/22 06:17:47;;;;;;;6.70;5.03;;;5.30;99.90;;;;;;5075505;28;20182;-73
2023/11/22 06:20:13;;;;;;;5.17;4.67;;;5.50;99.90;;;;;;5071838;28;20884;-70
2023/11/22 06:22:41;;;;;;;4.63;4.23;;;5.40;99.90;;;;;;5049397;28;20414;-73
2023/11/22 06:25:08;;;;;;;5.50;4.90;;;5.30;99.90;;;;;;5052365;28;20466;-72
2023/11/22 06:27:34;;;;;;;5.10;4.60;;;5.40;99.90;;;;;;5048099;28;20827;-72
2023/11/22 06:29:59;;;;;;;6.10;5.40;;;5.40;99.90;;;;;;5050175;28;20464;-73
2023/11/22 06:32:25;;;;;;;5.10;4.60;;;5.40;99.90;;;;;;5075064;28;20208;-73
2023/11/22 06:34:51;;;;;;;5.30;4.80;;;5.50;99.90;;;;;;5075340;28;20175;-74
2023/11/22 06:37:17;;;;;;;6.00;5.40;;;5.50;99.90;;;;;;5045364;28;20287;-73
2023/11/22 06:39:42;;;;;;;5.80;4.60;;;5.60;99.90;;;;;;5035484;28;20434;-72
2023/11/22 06:42:08;;;;;;;6.17;4.70;;;5.40;99.90;;;;;;5074281;28;20179;-74
2023/11/22 06:44:34;;;;;;;4.97;4.47;;;5.40;99.90;;;;;;5075310;28;20653;-73
2023/11/22 06:47:00;;;;;;;4.87;4.37;;;5.40;99.90;;;;;;5075784;28;20488;-72
2023/11/22 06:49:25;;;;;;;4.37;3.97;;;5.10;99.90;;;;;;5075715;28;20393;-72
2023/11/22 06:51:51;;;;;;;5.57;5.00;;;5.20;99.90;;;;;;5058223;28;20175;-71
2023/11/22 06:54:20;;;;;;;7.80;4.97;;;5.60;99.90;;;;;;5055457;28;20175;-73
2023/11/22 06:56:45;;;;;;;5.47;4.53;;;5.70;99.90;;;;;;5055380;28;20461;-71
2023/11/22 06:59:11;;;;;;;10.73;4.43;;;5.90;99.90;;;;;;5055700;28;20429;-70
2023/11/22 07:01:37;;;;;;;6.10;4.43;;;5.60;99.90;;;;;;5070634;28;20168;-70
2023/11/22 07:04:04;;;;;;;5.87;4.97;;;5.40;99.90;;;;;;5060133;28;20190;-71
2023/11/22 07:06:30;;;;;;;6.37;5.50;;;5.40;99.90;;;;;;5062017;28;20210;-71
2023/11/22 07:08:57;;;;;;;5.13;4.63;;;5.40;99.90;;;;;;5056918;28;20413;-71
2023/11/22 07:11:24;;;;;;;5.10;4.40;;;5.30;99.90;;;;;;5068590;28;20400;-71
2023/11/22 07:13:50;;;;;;;5.07;4.60;;;5.30;99.90;;;;;;5075533;28;20492;-71
2023/11/22 07:16:15;;;;;;;4.87;4.47;;;5.10;99.90;;;;;;5075138;28;20440;-70
2023/11/22 07:18:41;;;;;;;5.67;4.10;;;5.10;99.90;;;;;;5074476;28;20522;-71
2023/11/22 07:21:06;;;;;;;5.17;4.60;;;5.20;99.90;;;;;;5064222;28;20181;-72
2023/11/22 07:23:32;;;;;;;7.33;3.60;;;5.20;99.90;;;;;;5053803;28;20194;-71
2023/11/22 07:25:57;;;;;;;4.20;3.80;;;5.10;99.90;;;;;;5050346;28;20192;-72
2023/11/22 07:28:24;;;;;;;5.37;4.93;;;5.00;99.90;;;;;;5034288;28;20548;-71
2023/11/22 07:30:50;;;;;;;3.83;3.27;;;4.90;99.90;;;;;;5050128;28;20276;-73
2023/11/22 07:33:15;;;;;;;5.30;4.07;;;4.90;99.90;;;;;;5071081;28;20920;-71
2023/11/22 07:35:41;;;;;;;4.43;3.93;;;5.10;99.90;;;;;;5059129;28;20206;-70
2023/11/22 07:38:11;;;;;;;5.23;3.67;;;4.80;99.90;;;;;;5036957;28;20721;-72
2023/11/22 07:40:37;;;;;;;4.40;3.67;;;4.70;99.90;;;;;;5046674;28;20166;-72
2023/11/22 07:43:04;;;;;;;5.93;3.47;;;4.80;99.90;;;;;;5074518;28;20412;-71
2023/11/22 07:45:31;;;;;;;4.87;4.33;;;4.80;99.90;;;;;;5075142;28;20475;-71
2023/11/22 07:47:59;;;;;;;8.33;4.50;;;4.70;99.90;;;;;;5073073;28;20518;-72
2023/11/22 07:50:25;;;;;;;6.90;4.57;;;4.70;99.90;;;;;;5070343;28;20484;-74
2023/11/22 07:52:51;;;;;;;6.00;4.10;;;4.70;99.90;;;;;;5053982;28;20409;-72
2023/11/22 07:55:18;;;;;;;5.63;4.43;;;4.90;99.90;;;;;;5053948;28;20412;-73
2023/11/22 07:57:44;;;;;;;5.23;3.87;;;4.70;99.90;;;;;;5053937;28;20190;-73
2023/11/22 08:00:10;;;;;;;3.93;3.53;;;4.60;99.90;;;;;;5055059;28;20415;-72
2023/11/22 08:02:38;;;;;;;4.53;4.13;;;4.80;99.90;;;;;;5074193;28;20422;-72
2023/11/22 08:05:08;;;;;;;4.40;4.00;;;4.90;99.90;;;;;;5074002;28;20458;-70
2023/11/22 08:07:40;;;;;;;4.70;3.90;;;4.90;99.90;;;;;;5075147;28;20436;-71
2023/11/22 08:10:09;;;;;;;4.40;3.50;;;4.70;99.90;;;;;;5071405;28;20496;-74
2023/11/22 08:12:37;;;;;;;5.07;4.00;;;4.60;99.90;;;;;;5053634;28;20476;-74
2023/11/22 08:15:03;;;;;;;4.53;4.13;;;4.90;99.90;;;;;;5053823;28;20435;-72
2023/11/22 08:17:29;;;;;;;4.37;3.70;;;4.60;99.90;;;;;;5053495;28;20425;-72
2023/11/22 08:19:55;;;;;;;5.57;3.77;;;4.60;99.90;;;;;;5053835;28;20759;-73
2023/11/22 08:22:21;;;;;;;5.13;4.07;;;4.40;99.90;;;;;;5073150;28;20422;-71
2023/11/22 08:24:47;;;;;;;5.83;4.20;;;4.50;99.90;;;;;;5073134;28;20455;-73
2023/11/22 08:27:15;;;;;;;6.63;3.80;;;4.50;99.90;;;;;;5073202;28;20726;-74
2023/11/22 08:29:40;;;;;;;4.70;4.20;;;4.80;99.90;;;;;;5072035;28;20413;-76
2023/11/22 08:32:06;;;;;;;5.90;4.77;;;5.10;99.90;;;;;;5055735;28;20408;-73
2023/11/22 08:34:32;;;;;;;5.00;4.17;;;5.20;99.90;;;;;;5053560;28;20195;-73
2023/11/22 08:36:59;;;;;;;5.10;4.60;;;4.90;99.90;;;;;;5052016;28;20464;-73
2023/11/22 08:39:24;;;;;;;5.27;3.90;;;4.70;99.90;;;;;;5053267;28;20174;-75
2023/11/22 08:41:50;;;;;;;7.20;4.40;;;4.80;99.90;;;;;;5068372;28;20415;-76
2023/11/22 08:44:16;;;;;;;4.60;4.00;;;4.80;99.90;;;;;;5073200;28;20603;-76
2023/11/22 08:46:41;;;;;;;4.47;4.07;;;4.90;99.90;;;;;;5072897;28;20170;-75
2023/11/22 08:49:07;;;;;;;5.03;4.53;;;5.10;99.90;;;;;;5059485;28;20229;-75
2023/11/22 08:51:33;;;;;;;4.50;4.10;;;4.80;99.90;;;;;;5064466;28;20170;-74
2023/11/22 08:53:59;;;;;;;4.80;4.23;;;4.50;99.90;;;;;;5071278;28;20163;-75
2023/11/22 08:56:24;;;;;;;5.33;4.20;;;4.70;99.90;;;;;;5070300;28;20418;-74
2023/11/22 08:58:50;;;;;;;6.27;5.00;;;5.00;99.90;;;;;;5072708;28;20261;-74
2023/11/22 09:01:15;;;;;;;6.90;4.73;;;4.80;99.90;;;;;;5062921;28;20706;-72
2023/11/22 09:03:41;;;;;;;5.73;4.27;;;4.50;99.90;;;;;;5052882;28;20760;-76
2023/11/22 09:06:07;;;;;;;5.07;4.00;;;4.50;99.90;;;;;;5052754;28;20320;-72
2023/11/22 09:08:32;;;;;;;5.23;4.20;;;4.60;99.90;;;;;;5052719;28;20275;-72
2023/11/22 09:10:58;;;;;;;5.03;4.30;;;4.40;99.90;;;;;;5060310;28;20397;-72
2023/11/22 09:13:24;;;;;;;9.43;4.33;;;4.40;99.90;;;;;;5062049;28;20173;-73
2023/11/22 09:15:50;;;;;;;6.73;4.60;;;4.50;99.90;;;;;;5052972;28;20176;-74
2023/11/22 09:18:16;;;;;;;5.63;4.97;;;4.60;99.90;;;;;;5052657;28;20950;-71
2023/11/22 09:20:45;;;;;;;6.27;4.60;;;4.80;99.90;;;;;;5054204;28;20182;-71
2023/11/22 09:23:10;;;;;;;5.07;4.13;;;5.00;99.90;;;;;;5051024;28;20229;-72
2023/11/22 09:25:36;;;;;;;5.20;3.80;;;4.80;99.90;;;;;;5052893;28;20453;-72
2023/11/22 09:28:02;;;;;;;5.43;4.87;;;4.80;99.90;;;;;;5052712;28;20178;-69
2023/11/22 09:33:05;;;;;;;5.40;4.30;;;5.30;99.90;;;;;;5073027;28;20163;-72
2023/11/22 09:35:31;;;;;;;6.10;4.93;;;5.00;99.90;;;;;;5072561;28;20830;-74
2023/11/22 09:37:59;;;;;;;6.23;4.97;;;4.70;99.90;;;;;;5069185;28;20451;-72
2023/11/22 09:40:26;;;;;;;5.37;4.00;;;4.90;99.90;;;;;;5069942;28;20409;-72
2023/11/22 09:42:52;;;;;;;5.77;4.87;;;5.10;99.90;;;;;;5052441;28;20779;-72
2023/11/22 09:45:19;;;;;;;4.93;4.30;;;5.10;99.90;;;;;;5052595;28;20449;-70
2023/11/22 09:47:46;;;;;;;4.70;4.03;;;4.90;99.90;;;;;;5061175;23;20578;-71
2023/11/22 09:50:19;;;;;;;5.50;4.50;;;4.80;99.90;;;;;;5013246;28;20961;-71
2023/11/22 09:52:49;;;;;;;7.57;4.43;;;5.00;99.90;;;;;;5032717;28;20382;-73
2023/11/22 09:55:15;;;;;;;4.73;4.23;;;5.00;99.90;;;;;;5031187;28;20398;-72
2023/11/22 09:57:41;;;;;;;5.80;4.57;;;5.10;99.90;;;;;;5031043;28;20426;-72
2023/11/22 10:00:13;;;;;;;7.23;5.60;;;5.20;99.90;;;;;;5032664;28;20259;-72
2023/11/22 10:02:40;;;;;;;8.50;5.20;;;4.80;99.90;;;;;;4993563;28;20413;-72
2023/11/22 10:05:08;;;;;;;5.77;4.73;;;4.60;99.90;;;;;;4992863;28;20452;-71
2023/11/22 10:07:36;;;;;;;5.90;5.00;;;4.70;99.90;;;;;;4991756;28;20451;-71
2023/11/22 10:10:05;;;;;;;5.63;5.10;;;4.80;99.90;;;;;;4993000;28;20483;-71
2023/11/22 10:12:30;;;;;;;6.27;5.07;;;4.90;99.90;;;;;;5033079;28;20792;-71
2023/11/22 10:15:14;;;;;;;6.03;4.90;;;4.90;99.90;;;;;;5035906;28;20440;-71
2023/11/22 10:17:40;;;;;;;8.93;5.80;;;4.80;99.90;;;;;;5036151;28;20183;-71
2023/11/22 10:20:11;;;;;;;6.00;5.30;;;4.80;99.90;;;;;;5034770;28;20914;-72
2023/11/22 10:22:47;;;;;;;13.10;5.90;;;4.80;99.90;;;;;;4996293;28;20942;-72
2023/11/22 10:25:18;;;;;;;6.87;5.40;;;4.70;99.90;;;;;;5011442;28;21070;-72
2023/11/22 10:27:51;;;;;;;6.97;5.33;;;4.80;99.90;;;;;;4996235;28;20798;-73
2023/11/22 10:30:18;;;;;;;6.00;5.00;;;5.00;99.90;;;;;;4997481;28;20388;-73
2023/11/22 10:32:44;;;;;;;7.47;5.10;;;5.10;99.90;;;;;;5035521;28;20847;-73
2023/11/22 10:35:14;;;;;;;7.23;5.40;;;5.10;99.90;;;;;;5035768;28;20967;-73
2023/11/22 10:37:41;;;;;;;6.10;4.60;;;5.00;99.90;;;;;;5034174;28;20943;-73
2023/11/22 10:40:10;;;;;;;5.93;5.33;;;5.10;99.90;;;;;;5034584;28;20851;-73
2023/11/22 10:42:38;;;;;;;6.63;5.97;;;5.30;99.90;;;;;;5014688;28;20462;-73
2023/11/22 10:45:07;;;;;;;6.93;6.23;;;5.40;99.90;;;;;;5015561;28;20443;-72
2023/11/22 10:47:38;;;;;;;6.40;5.33;;;5.80;99.90;;;;;;5013877;28;20457;-72
2023/11/22 10:50:05;;;;;;;8.10;6.50;;;5.40;99.90;;;;;;5014162;28;20513;-71
2023/11/22 10:52:32;;;;;;;7.20;6.50;;;5.50;99.90;;;;;;5033973;28;20406;-74
2023/11/22 10:55:03;;;;;;;7.90;6.93;;;5.30;99.90;;;;;;5033836;28;20414;-73
2023/11/22 10:57:32;;;;;;;7.73;5.80;;;5.40;99.90;;;;;;5035583;28;20426;-73
2023/11/22 11:00:05;;;;;;;6.93;5.90;;;5.60;99.90;;;;;;5035189;28;20400;-73
2023/11/22 11:02:36;;;;;;;6.80;6.17;;;5.30;99.90;;;;;;5016439;28;20395;-72
2023/11/22 11:05:17;;;;;;;6.57;5.97;;;5.30;99.90;;;;;;5015808;28;20758;-73
2023/11/22 11:07:48;;;;;;;8.87;6.00;;;5.50;99.90;;;;;;5015090;28;20833;-73
2023/11/22 11:10:14;;;;;;;7.10;6.40;;;5.20;99.90;;;;;;5015067;28;20919;-73
2023/11/22 11:12:40;;;;;;;6.50;5.50;;;5.30;99.90;;;;;;5031115;28;20461;-73
2023/11/22 11:15:07;;;;;;;7.80;6.40;;;5.40;99.90;;;;;;5014990;28;20160;-73
2023/11/22 11:17:34;;;;;;;7.50;6.00;;;5.20;99.90;;;;;;5015518;28;20510;-73
2023/11/22 11:20:00;;;;;;;6.43;5.67;;;5.20;99.90;;;;;;5025905;28;20414;-73
2023/11/22 11:22:25;;;;;;;7.77;6.37;;;5.30;99.90;;;;;;5014607;28;20395;-72
2023/11/22 11:25:00;;;;;;;6.93;6.23;;;5.50;99.90;;;;;;5015138;28;20195;-73
2023/11/22 11:27:26;;;;;;;9.20;6.80;;;5.20;99.90;;;;;;5014772;28;20480;-73
2023/11/22 11:29:52;;;;;;;8.13;6.27;;;5.10;99.90;;;;;;5021675;28;20493;-73
2023/11/22 11:32:37;;;;;;;6.90;6.20;;;5.10;99.90;;;;;;5033104;28;20172;-73
2023/11/22 11:35:06;;;;;;;9.40;7.13;;;5.20;99.90;;;;;;5033995;28;20406;-72
2023/11/22 11:37:32;;;;;;;7.90;6.30;;;5.20;99.90;;;;;;5034426;28;20458;-73
2023/11/22 11:39:58;;;;;;;9.27;6.83;;;5.20;99.90;;;;;;5026496;28;20412;-73
2023/11/22 11:42:24;;;;;;;8.23;6.00;;;5.30;99.90;;;;;;5015816;28;20232;-72
2023/11/22 11:45:02;;;;;;;7.10;6.40;;;5.30;99.90;;;;;;5014314;28;20453;-72
2023/11/22 11:47:28;;;;;;;9.00;7.77;;;5.00;99.90;;;;;;5014377;28;20271;-72
2023/11/22 11:49:56;;;;;;;7.33;6.60;;;5.10;99.90;;;;;;5019995;28;20398;-73
2023/11/22 11:52:21;;;;;;;8.77;6.90;;;5.20;99.90;;;;;;5034208;28;20399;-73
2023/11/22 11:54:47;;;;;;;7.80;7.07;;;5.20;99.90;;;;;;5033963;28;20474;-73
2023/11/22 11:57:12;;;;;;;7.93;7.10;;;5.20;99.90;;;;;;5033939;28;20287;-72
2023/11/22 11:59:38;;;;;;;7.00;6.23;;;5.30;99.90;;;;;;5028937;28;20184;-72
2023/11/22 12:02:05;;;;;;;7.97;6.33;;;5.20;99.90;;;;;;5014044;28;20648;-72
2023/11/22 12:04:32;;;;;;;7.30;6.00;;;5.20;99.90;;;;;;5014030;28;20210;-71
2023/11/22 12:06:58;;;;;;;9.17;7.17;;;5.20;99.90;;;;;;5013927;28;20412;-72
2023/11/22 12:09:29;;;;;;;7.53;6.83;;;5.10;99.90;;;;;;5016904;28;20406;-72
2023/11/22 12:11:54;;;;;;;7.07;6.13;;;5.10;99.90;;;;;;5033622;28;20165;-73
2023/11/22 12:14:22;;;;;;;7.27;6.33;;;5.00;99.90;;;;;;5033984;28;20469;-72
2023/11/22 12:16:50;;;;;;;9.20;7.10;;;4.80;99.90;;;;;;5032266;28;20171;-72
2023/11/22 12:19:24;;;;;;;8.23;7.00;;;4.90;99.90;;;;;;5031802;28;20452;-71
2023/11/22 12:21:50;;;;;;;9.13;6.10;;;5.00;99.90;;;;;;5013641;28;20890;-73
2023/11/22 12:24:16;;;;;;;8.20;7.00;;;5.10;99.90;;;;;;5013745;28;20396;-72
2023/11/22 12:26:50;;;;;;;8.67;6.83;;;5.00;99.90;;;;;;5013661;28;20505;-70
2023/11/22 12:29:19;;;;;;;11.97;6.37;;;5.00;99.90;;;;;;5014969;28;20181;-73
2023/11/22 12:31:46;;;;;;;8.40;7.17;;;5.20;99.90;;;;;;5033879;28;20910;-75
2023/11/22 12:34:15;;;;;;;9.00;6.80;;;5.00;99.90;;;;;;5023540;28;20419;-75
2023/11/22 12:36:42;;;;;;;12.40;7.77;;;5.00;99.90;;;;;;5005461;28;20423;-74
2023/11/22 12:39:12;;;;;;;6.93;6.23;;;5.20;99.90;;;;;;5004249;28;20435;-74
2023/11/22 12:41:46;;;;;;;8.63;7.73;;;5.30;99.90;;;;;;5005651;28;20422;-74
2023/11/22 12:44:12;;;;;;;9.93;8.03;;;5.40;99.90;;;;;;5005117;28;20410;-73
2023/11/22 12:46:59;;;;;;;8.70;7.00;;;5.40;99.90;;;;;;5004209;28;20868;-74
2023/11/22 12:49:25;;;;;;;9.00;7.13;;;5.50;99.90;;;;;;5004951;28;20195;-73
2023/11/22 12:51:53;;;;;;;8.07;7.27;;;5.60;99.90;;;;;;5004295;28;20407;-71
2023/11/22 12:54:22;;;;;;;7.93;6.20;;;5.60;99.90;;;;;;5004788;28;20408;-71
2023/11/22 12:56:50;;;;;;;7.67;6.70;;;5.30;99.90;;;;;;5004261;28;20418;-74